Time;durP1;ratioP1;P1;durP2;ratioP2;P2;SDS_P1;SDS_P2;PMS_P1;PMS_P2;Temp;Humidity;BMP_temperature;BMP_pressure;BME280_temperature;BME280_humidity;BME280_pressure;Samples;Min_cycle;Max_cycle;Signal;HPM_P1;HPM_P2
2022/12/04 00:02:08;;;;;;;38.90;19.40;;;;;;;1.31;86.33;100595.23;210198;1294;141540;-67
2022/12/04 00:07:12;;;;;;;52.80;25.30;;;;;;;1.31;86.33;100594.86;207108;1275;139966;-66
2022/12/04 00:12:17;;;;;;;54.20;25.80;;;;;;;1.28;86.43;100603.11;209375;1293;140487;-65
2022/12/04 00:17:21;;;;;;;52.20;24.90;;;;;;;1.24;86.57;100604.70;210186;1294;140934;-64
2022/12/04 00:22:25;;;;;;;58.20;27.80;;;;;;;1.23;86.58;100608.46;210271;1295;140701;-64
2022/12/04 00:27:29;;;;;;;51.70;24.90;;;;;;;1.27;86.54;100612.14;209784;1294;140508;-66
2022/12/04 00:32:33;;;;;;;53.30;23.90;;;;;;;1.31;86.62;100610.69;210247;1290;140636;-64
2022/12/04 00:37:37;;;;;;;56.80;22.90;;;;;;;1.33;86.56;100607.27;210065;1296;141510;-64
2022/12/04 00:42:41;;;;;;;44.60;21.60;;;;;;;1.39;86.65;100604.28;210220;1296;140653;-64
2022/12/04 00:47:44;;;;;;;46.20;22.20;;;;;;;1.34;86.51;100602.44;210211;1299;140138;-68
2022/12/04 00:52:48;;;;;;;51.00;25.60;;;;;;;1.31;86.49;100602.98;209046;1280;140157;-68
2022/12/04 00:57:52;;;;;;;47.10;21.10;;;;;;;1.28;86.56;100592.21;207137;1286;140411;-67
2022/12/04 01:03:01;;;;;;;31.60;15.90;;;;;;;1.32;86.70;100591.30;210269;1294;140065;-67
2022/12/04 01:08:06;;;;;;;37.60;20.20;;;;;;;1.25;86.91;100589.73;210163;1293;142216;-64
2022/12/04 01:13:09;;;;;;;39.40;18.60;;;;;;;1.26;86.92;100575.65;210048;1299;140845;-64
2022/12/04 01:18:13;;;;;;;41.20;19.90;;;;;;;1.26;86.55;100576.48;210201;1286;140436;-65
2022/12/04 01:23:17;;;;;;;35.90;18.20;;;;;;;1.26;86.84;100573.55;210150;1296;140331;-69
2022/12/04 01:28:21;;;;;;;29.90;16.10;;;;;;;1.31;86.84;100569.85;210301;1286;140318;-69
2022/12/04 01:33:25;;;;;;;43.70;21.50;;;;;;;1.33;86.98;100564.58;210367;1294;221111;-67
2022/12/04 01:38:30;;;;;;;40.40;19.30;;;;;;;1.39;87.28;100568.55;210014;1293;139899;-68
2022/12/04 01:43:35;;;;;;;31.10;15.90;;;;;;;1.44;86.94;100567.57;210181;1290;139975;-69
2022/12/04 01:48:53;;;;;;;67.50;26.40;;;;;;;1.44;86.75;100563.50;210026;1286;141040;-64
2022/12/04 01:54:01;;;;;;;162.50;38.60;;;;;;;1.44;86.78;100560.02;210237;1297;139371;-64
2022/12/04 01:59:08;;;;;;;93.40;30.30;;;;;;;1.42;86.72;100560.14;210169;1296;142039;-70
2022/12/04 02:04:11;;;;;;;115.70;30.80;;;;;;;1.36;86.47;100561.61;209604;1292;139759;-64
2022/12/04 02:09:15;;;;;;;80.30;27.50;;;;;;;1.31;86.70;100553.73;210431;1287;139945;-66
2022/12/04 02:14:57;;;;;;;34.60;17.70;;;;;;;1.25;86.74;100553.63;210406;1274;139576;-65
2022/12/04 02:20:19;;;;;;;43.70;19.40;;;;;;;1.30;87.10;100559.50;210300;1284;142555;-64
2022/12/04 02:25:31;;;;;;;33.40;16.80;;;;;;;1.27;86.92;100566.40;208338;1295;140818;-72
2022/12/04 02:30:39;;;;;;;32.10;16.70;;;;;;;1.24;87.09;100567.92;210238;1297;139593;-68
2022/12/04 02:36:11;;;;;;;40.50;18.50;;;;;;;1.18;87.20;100569.25;210205;1297;140499;-65
2022/12/04 02:41:21;;;;;;;32.00;15.70;;;;;;;1.17;87.05;100565.92;209921;1298;221953;-65
2022/12/04 02:46:41;;;;;;;34.20;16.20;;;;;;;1.16;87.14;100571.08;209990;1297;139820;-66
2022/12/04 02:51:48;;;;;;;27.80;17.50;;;;;;;1.21;87.25;100562.90;210100;1297;160785;-67
2022/12/04 02:56:55;;;;;;;29.00;18.10;;;;;;;1.18;87.18;100563.67;210205;1298;140330;-66
2022/12/04 03:02:10;;;;;;;31.90;17.00;;;;;;;1.19;87.02;100565.90;209578;1296;140770;-66
2022/12/04 03:07:20;;;;;;;34.80;15.90;;;;;;;1.20;87.07;100562.80;206982;1286;139435;-65
2022/12/04 03:12:43;;;;;;;41.50;17.70;;;;;;;1.25;87.18;100559.43;210005;1296;142081;-66
2022/12/04 03:17:53;;;;;;;26.00;16.00;;;;;;;1.31;87.51;100561.64;209921;1299;139945;-65
2022/12/04 03:23:10;;;;;;;32.10;14.20;;;;;;;1.33;87.08;100568.80;210036;1295;141264;-67
2022/12/04 03:28:24;;;;;;;40.70;17.50;;;;;;;1.32;87.16;100566.63;209924;1296;141410;-65
2022/12/04 03:33:49;;;;;;;35.40;16.70;;;;;;;1.24;87.13;100571.63;209891;1296;141540;-69
2022/12/04 03:39:25;;;;;;;32.00;15.60;;;;;;;1.28;87.24;100564.54;210141;1294;140482;-66
2022/12/04 03:44:36;;;;;;;36.50;16.90;;;;;;;1.29;87.59;100561.66;210022;1294;139784;-68
2022/12/04 03:49:43;;;;;;;34.20;17.30;;;;;;;1.28;87.09;100556.85;210221;1288;140550;-67
2022/12/04 03:55:24;;;;;;;31.60;15.10;;;;;;;1.23;87.39;100565.23;210293;1295;140893;-69
2022/12/04 04:00:30;;;;;;;30.00;15.60;;;;;;;1.25;87.46;100567.48;210100;1285;220192;-69
2022/12/04 04:05:39;;;;;;;33.90;14.90;;;;;;;1.27;87.24;100559.05;210230;1294;141070;-68
2022/12/04 04:10:43;;;;;;;28.30;14.50;;;;;;;1.28;87.39;100548.98;210355;1301;140824;-75
2022/12/04 04:26:50;;;;;;;45.70;18.50;;;;;;;1.20;87.58;100556.46;208534;1296;140588;-69
2022/12/04 04:32:10;;;;;;;57.40;20.50;;;;;;;1.20;87.30;100551.96;210324;1302;140854;-68
2022/12/04 04:37:39;;;;;;;39.10;17.40;;;;;;;1.15;87.44;100551.20;209327;1296;140405;-68
2022/12/04 04:42:50;;;;;;;34.20;19.00;;;;;;;1.13;87.72;100548.59;207011;1300;139728;-68
2022/12/04 04:48:01;;;;;;;46.00;20.30;;;;;;;1.08;87.85;100544.52;209388;1288;140464;-69
2022/12/04 04:53:12;;;;;;;26.00;13.90;;;;;;;1.05;88.18;100548.52;207360;1296;139980;-68
2022/12/04 04:58:20;;;;;;;30.00;13.70;;;;;;;1.05;88.14;100552.44;207145;1296;140257;-67
2022/12/04 05:03:25;;;;;;;32.90;17.20;;;;;;;1.06;88.01;100562.98;207334;1287;139777;-68
2022/12/04 05:08:29;;;;;;;30.20;12.70;;;;;;;1.03;88.44;100561.84;206934;1294;139459;-68
2022/12/04 05:13:32;;;;;;;34.70;17.50;;;;;;;1.05;88.03;100559.01;209021;1295;140228;-68
2022/12/04 05:18:37;;;;;;;33.80;14.60;;;;;;;1.05;88.38;100554.83;210284;1294;141609;-68
2022/12/04 05:23:40;;;;;;;21.00;10.80;;;;;;;1.14;88.03;100553.09;210298;1287;140750;-68
2022/12/04 05:28:44;;;;;;;35.10;16.30;;;;;;;1.16;88.22;100553.38;210323;1300;139481;-68
2022/12/04 05:33:48;;;;;;;28.80;15.20;;;;;;;1.17;88.04;100549.48;210514;1286;141641;-68
2022/12/04 05:38:52;;;;;;;25.80;13.80;;;;;;;1.12;88.00;100541.17;210364;1294;141500;-68
2022/12/04 05:43:56;;;;;;;35.60;18.20;;;;;;;1.11;88.29;100536.93;207289;1299;141208;-67
2022/12/04 05:49:00;;;;;;;33.00;15.80;;;;;;;1.11;88.23;100527.24;206996;1287;140900;-68
2022/12/04 05:54:05;;;;;;;30.70;15.50;;;;;;;1.10;88.20;100530.92;207906;1296;448999;-67
2022/12/04 05:59:09;;;;;;;33.50;15.60;;;;;;;1.08;88.06;100535.46;210405;1292;139501;-68
2022/12/04 06:04:13;;;;;;;32.00;16.80;;;;;;;1.07;88.35;100542.19;207528;1287;150677;-68
2022/12/04 06:09:17;;;;;;;31.00;14.70;;;;;;;1.04;88.08;100543.21;209545;1294;140159;-68
2022/12/04 06:14:22;;;;;;;32.30;14.00;;;;;;;0.98;88.41;100541.98;209967;1290;140999;-67
2022/12/04 06:19:26;;;;;;;23.90;13.20;;;;;;;0.96;88.59;100540.79;210308;1286;140149;-67
2022/12/04 06:24:29;;;;;;;22.40;13.20;;;;;;;0.98;88.38;100533.15;210304;1295;140965;-68
2022/12/04 06:29:34;;;;;;;27.90;13.10;;;;;;;0.96;88.49;100537.80;210387;1294;139727;-67
2022/12/04 06:34:37;;;;;;;34.10;15.00;;;;;;;0.96;88.56;100538.02;210275;1294;140801;-68
2022/12/04 06:39:41;;;;;;;18.20;11.50;;;;;;;0.99;88.46;100530.90;210348;1294;142020;-68
2022/12/04 06:44:45;;;;;;;25.30;12.40;;;;;;;0.96;88.56;100533.41;207092;1286;140532;-67
2022/12/04 06:49:50;;;;;;;26.40;12.50;;;;;;;0.93;88.29;100544.24;210129;1295;140479;-68
2022/12/04 06:54:53;;;;;;;26.30;12.90;;;;;;;0.89;88.49;100559.39;210327;1301;140250;-68
2022/12/04 06:59:57;;;;;;;33.00;15.10;;;;;;;0.87;88.49;100567.25;210250;1298;141835;-68
2022/12/04 07:05:02;;;;;;;26.70;12.60;;;;;;;0.88;88.56;100568.44;210346;1301;140314;-68
2022/12/04 07:10:06;;;;;;;27.70;13.60;;;;;;;0.88;88.51;100566.89;210238;1301;140139;-68
2022/12/04 07:15:11;;;;;;;27.50;11.50;;;;;;;0.88;88.30;100570.54;210448;1291;209171;-68
2022/12/04 07:20:14;;;;;;;23.80;14.80;;;;;;;0.86;88.53;100563.17;210116;1294;141280;-68
2022/12/04 07:25:19;;;;;;;59.60;17.30;;;;;;;0.89;88.69;100561.85;210277;1291;140521;-68
2022/12/04 07:30:23;;;;;;;52.10;19.50;;;;;;;0.88;88.44;100566.96;210258;1294;139542;-68
2022/12/04 07:35:28;;;;;;;35.00;16.90;;;;;;;0.91;88.82;100570.06;210342;1300;140409;-68
2022/12/04 07:40:32;;;;;;;48.30;23.00;;;;;;;0.92;88.78;100572.39;210351;1300;141187;-68
2022/12/04 07:45:36;;;;;;;27.30;12.00;;;;;;;0.97;88.87;100569.77;210288;1294;140396;-68
2022/12/04 07:50:40;;;;;;;41.80;19.40;;;;;;;0.98;88.52;100583.98;210289;1292;140200;-68
2022/12/04 07:55:51;;;;;;;32.80;15.60;;;;;;;1.04;88.53;100581.34;209906;1296;140315;-68
2022/12/04 08:01:14;;;;;;;34.20;14.60;;;;;;;1.03;88.35;100583.02;210355;1295;152305;-68
2022/12/04 08:06:20;;;;;;;30.40;14.30;;;;;;;1.04;88.54;100576.65;209202;1293;140424;-67
2022/12/04 08:11:26;;;;;;;24.80;12.20;;;;;;;1.05;88.57;100578.60;210234;1286;140612;-67
2022/12/04 08:16:32;;;;;;;20.70;12.70;;;;;;;1.08;88.78;100594.61;210148;1291;140568;-68
2022/12/04 08:21:37;;;;;;;27.70;14.50;;;;;;;1.16;88.79;100602.95;210462;1287;142711;-68
2022/12/04 08:26:41;;;;;;;30.20;15.00;;;;;;;1.25;88.76;100597.67;210140;1295;246143;-68
2022/12/04 08:31:46;;;;;;;35.00;17.20;;;;;;;1.33;88.43;100597.70;210073;1295;140807;-68
2022/12/04 08:36:51;;;;;;;36.30;17.40;;;;;;;1.39;88.41;100598.48;210088;1295;140563;-68
2022/12/04 08:41:56;;;;;;;30.10;16.00;;;;;;;1.51;88.35;100603.08;209993;1296;139864;-69
2022/12/04 08:47:03;;;;;;;26.10;13.40;;;;;;;1.53;88.41;100615.57;209316;1294;140087;-68
2022/12/04 08:52:07;;;;;;;29.60;17.20;;;;;;;1.57;88.07;100609.73;210100;1296;140779;-68
2022/12/04 08:57:11;;;;;;;32.30;14.40;;;;;;;1.58;88.20;100598.67;210301;1293;140935;-68
2022/12/04 09:02:16;;;;;;;29.90;13.10;;;;;;;1.63;87.81;100597.95;210154;1297;141886;-67
2022/12/04 09:07:20;;;;;;;30.90;15.30;;;;;;;1.63;88.01;100594.95;210155;1294;140049;-68
2022/12/04 09:12:24;;;;;;;23.50;14.90;;;;;;;1.62;87.83;100599.23;210367;1293;142591;-67
2022/12/04 09:17:28;;;;;;;31.10;14.50;;;;;;;1.63;88.23;100600.88;210298;1295;140243;-67
2022/12/04 09:22:34;;;;;;;41.70;20.00;;;;;;;1.66;87.95;100604.98;210365;1300;140308;-68
2022/12/04 09:27:58;;;;;;;23.60;12.80;;;;;;;1.71;87.77;100607.66;210194;1295;141118;-68
2022/12/04 09:33:02;;;;;;;25.20;13.90;;;;;;;1.73;87.77;100611.66;210408;1293;164382;-68
2022/12/04 09:38:06;;;;;;;32.40;14.60;;;;;;;1.76;87.65;100605.92;210199;1300;142556;-67
2022/12/04 09:43:18;;;;;;;28.30;14.80;;;;;;;1.73;87.64;100601.67;210178;1296;140567;-68
2022/12/04 09:48:29;;;;;;;29.80;16.00;;;;;;;1.67;87.79;100587.92;210278;1294;141232;-67
2022/12/04 09:53:47;;;;;;;28.30;14.90;;;;;;;1.67;87.72;100578.63;210173;1293;140390;-68
2022/12/04 09:59:02;;;;;;;35.40;18.50;;;;;;;1.72;87.81;100572.38;209507;1293;141016;-68
2022/12/04 10:04:08;;;;;;;33.40;17.20;;;;;;;1.69;87.94;100571.22;210266;1299;140559;-69
2022/12/04 10:09:40;;;;;;;31.00;18.10;;;;;;;1.73;87.74;100566.98;208896;1293;141335;-68
2022/12/04 10:15:05;;;;;;;39.90;17.30;;;;;;;1.79;87.66;100559.73;210025;1294;140722;-68
2022/12/04 10:20:33;;;;;;;34.00;17.60;;;;;;;1.79;87.79;100567.27;210341;1300;140621;-69
2022/12/04 10:25:39;;;;;;;37.00;19.90;;;;;;;1.73;87.49;100562.96;209146;1300;140801;-68
2022/12/04 10:30:44;;;;;;;33.70;15.80;;;;;;;1.75;87.56;100557.29;207197;1283;140768;-68
2022/12/04 10:35:51;;;;;;;34.70;16.30;;;;;;;1.72;87.65;100560.09;208205;1286;140444;-68
2022/12/04 10:41:02;;;;;;;35.50;18.50;;;;;;;1.75;87.70;100561.56;210135;1297;140921;-69
2022/12/04 10:46:12;;;;;;;29.20;16.60;;;;;;;1.82;87.76;100560.86;210322;1278;139898;-69
2022/12/04 10:51:21;;;;;;;35.80;16.60;;;;;;;1.76;87.51;100558.77;210269;1299;140597;-69
2022/12/04 10:56:34;;;;;;;35.40;15.90;;;;;;;1.83;87.85;100555.23;210209;1294;225252;-69
2022/12/04 11:01:38;;;;;;;34.80;16.50;;;;;;;1.82;87.40;100555.05;210095;1295;141426;-69
2022/12/04 11:06:41;;;;;;;30.60;14.20;;;;;;;1.82;87.40;100550.94;208000;1294;140559;-69
2022/12/04 11:11:45;;;;;;;30.60;17.00;;;;;;;1.74;87.29;100556.92;207858;1283;141449;-68
2022/12/04 11:17:00;;;;;;;28.10;16.10;;;;;;;1.68;87.50;100550.45;210149;1296;230184;-69
2022/12/04 11:22:13;;;;;;;71.90;23.50;;;;;;;1.65;87.76;100548.55;210340;1300;140935;-69
2022/12/04 11:27:26;;;;;;;150.50;36.10;;;;;;;1.64;87.65;100553.11;210262;1294;140741;-70
2022/12/04 11:32:33;;;;;;;49.90;21.10;;;;;;;1.65;87.75;100561.44;210174;1292;140525;-69
2022/12/04 11:37:37;;;;;;;30.30;15.90;;;;;;;1.64;87.52;100562.15;210189;1296;140477;-68
2022/12/04 11:43:09;;;;;;;38.30;18.90;;;;;;;1.62;87.64;100557.55;210131;1302;140261;-69
2022/12/04 11:48:17;;;;;;;30.90;18.00;;;;;;;1.65;87.44;100565.81;210279;1294;140380;-69
2022/12/04 11:53:36;;;;;;;40.30;19.20;;;;;;;1.62;87.63;100569.63;210160;1296;140017;-69
2022/12/04 11:58:58;;;;;;;34.30;18.30;;;;;;;1.60;87.61;100573.42;208125;1293;140846;-68
2022/12/04 12:04:17;;;;;;;35.40;19.20;;;;;;;1.56;87.72;100563.09;210272;1299;143069;-67
2022/12/04 12:09:32;;;;;;;28.10;18.70;;;;;;;1.59;87.63;100558.75;210511;1299;140305;-68
2022/12/04 12:14:51;;;;;;;34.10;20.40;;;;;;;1.64;87.81;100558.73;210350;1302;139490;-68
2022/12/04 12:20:07;;;;;;;24.80;13.80;;;;;;;1.59;87.51;100551.05;208710;1283;140711;-69
2022/12/04 12:25:43;;;;;;;29.70;15.40;;;;;;;1.54;87.43;100552.23;209051;1294;141355;-69
2022/12/04 12:31:23;;;;;;;28.90;15.10;;;;;;;1.49;87.55;100550.92;210317;1300;140904;-69
2022/12/04 12:36:34;;;;;;;30.60;17.00;;;;;;;1.49;87.98;100541.60;210193;1295;141615;-69
2022/12/04 12:41:58;;;;;;;;;;;;;;;1.51;87.85;100547.31;208186;1284;140680;-69
2022/12/04 12:47:16;;;;;;;29.20;16.40;;;;;;;1.51;88.02;100547.88;207595;1294;127262;-68
2022/12/04 12:53:00;;;;;;;37.80;19.20;;;;;;;1.59;88.07;100539.33;209877;1288;141651;-68
2022/12/04 12:58:13;;;;;;;32.30;15.50;;;;;;;1.58;87.85;100533.08;210234;1295;249146;-70
2022/12/04 13:03:25;;;;;;;26.80;14.80;;;;;;;1.58;87.75;100532.09;210406;1295;139599;-68
2022/12/04 13:08:39;;;;;;;33.00;17.90;;;;;;;1.51;87.57;100532.51;210342;1300;141859;-69
2022/12/04 13:14:01;;;;;;;30.80;15.20;;;;;;;1.46;87.59;100525.45;210206;1300;245340;-69
2022/12/04 13:19:34;;;;;;;32.20;15.10;;;;;;;1.43;87.38;100525.60;210305;1300;141688;-68
2022/12/04 13:24:44;;;;;;;34.50;18.30;;;;;;;1.43;87.84;100525.73;210373;1295;141330;-68
2022/12/04 13:30:00;;;;;;;37.40;18.80;;;;;;;1.44;88.05;100522.98;210200;1295;139997;-67
2022/12/04 13:35:35;;;;;;;33.60;15.60;;;;;;;1.50;88.04;100521.30;210206;1302;140301;-68
2022/12/04 13:40:55;;;;;;;23.00;13.80;;;;;;;1.57;87.86;100522.72;210391;1294;153463;-67
2022/12/04 13:46:07;;;;;;;27.20;15.60;;;;;;;1.53;87.77;100524.86;210387;1294;139374;-68
2022/12/04 13:51:12;;;;;;;81.80;28.40;;;;;;;1.50;87.74;100531.18;209442;1280;142407;-69
2022/12/04 13:56:26;;;;;;;134.40;37.60;;;;;;;1.49;87.83;100527.80;210212;1295;140108;-70
2022/12/04 14:01:37;;;;;;;44.10;18.70;;;;;;;1.48;87.89;100532.98;210303;1294;140066;-70
2022/12/04 14:06:42;;;;;;;47.20;20.40;;;;;;;1.46;87.58;100538.45;210060;1294;141297;-67
2022/12/04 14:11:53;;;;;;;42.40;18.00;;;;;;;1.38;87.63;100549.23;210349;1295;140794;-66
2022/12/04 14:16:58;;;;;;;36.00;17.60;;;;;;;1.33;87.77;100550.39;210216;1287;140068;-67
2022/12/04 14:22:03;;;;;;;37.40;18.10;;;;;;;1.29;87.93;100549.73;210221;1288;150958;-71
2022/12/04 14:27:28;;;;;;;29.50;17.20;;;;;;;1.31;87.71;100546.86;208637;1294;140117;-69
2022/12/04 14:32:34;;;;;;;31.10;15.70;;;;;;;1.31;88.16;100547.31;210178;1294;139748;-69
2022/12/04 14:37:43;;;;;;;30.30;16.80;;;;;;;1.33;87.91;100544.58;210272;1288;141459;-72
2022/12/04 14:42:47;;;;;;;38.50;18.50;;;;;;;1.31;87.89;100540.82;210102;1286;141103;-68
2022/12/04 14:48:26;;;;;;;34.40;16.80;;;;;;;1.29;87.91;100538.67;209595;1292;150315;-66
2022/12/04 14:53:59;;;;;;;30.90;15.70;;;;;;;1.25;87.75;100545.73;210251;1289;219671;-68
2022/12/04 14:59:23;;;;;;;29.70;16.00;;;;;;;1.18;88.04;100543.58;210082;1287;223294;-67
2022/12/04 15:04:33;;;;;;;31.30;15.90;;;;;;;1.15;88.02;100540.21;210314;1295;141711;-68
2022/12/04 15:15:20;;;;;;;32.50;17.00;;;;;;;1.20;88.23;100541.20;210347;1288;140226;-66
2022/12/04 15:20:28;;;;;;;31.30;15.00;;;;;;;1.26;88.27;100547.23;210194;1297;140581;-67
2022/12/04 15:25:43;;;;;;;28.70;15.80;;;;;;;1.23;87.88;100554.80;210163;1278;140677;-65
2022/12/04 15:30:49;;;;;;;33.90;19.00;;;;;;;1.14;87.49;100550.27;210315;1280;140352;-69
2022/12/04 15:36:00;;;;;;;35.10;19.00;;;;;;;1.05;87.90;100552.20;210225;1294;140700;-68
2022/12/04 15:41:04;;;;;;;33.30;17.80;;;;;;;1.07;87.79;100551.02;210059;1294;140499;-68
2022/12/04 15:46:13;;;;;;;37.60;17.60;;;;;;;1.04;88.10;100537.04;210273;1294;163215;-70
2022/12/04 15:51:20;;;;;;;30.30;13.20;;;;;;;0.98;87.91;100533.48;210402;1286;140546;-68
2022/12/04 15:56:24;;;;;;;34.10;18.10;;;;;;;0.98;87.99;100539.94;210286;1290;141272;-72
2022/12/04 16:01:38;;;;;;;32.60;15.40;;;;;;;0.95;88.27;100536.21;210311;1294;140682;-69
2022/12/04 16:06:46;;;;;;;30.50;16.20;;;;;;;0.95;88.04;100540.73;210325;1297;141169;-67
2022/12/04 16:11:58;;;;;;;34.20;16.20;;;;;;;0.93;88.09;100541.61;210275;1302;139683;-68
2022/12/04 16:17:02;;;;;;;161.20;46.30;;;;;;;0.98;88.12;100540.64;210288;1296;140067;-67
2022/12/04 16:22:19;;;;;;;46.60;19.10;;;;;;;1.02;88.44;100540.46;210144;1294;235545;-69
2022/12/04 16:27:24;;;;;;;44.20;18.30;;;;;;;1.02;88.18;100549.55;210349;1293;140747;-69
2022/12/04 16:32:32;;;;;;;42.90;18.80;;;;;;;0.94;88.17;100549.62;208270;1288;139883;-69
2022/12/04 16:37:35;;;;;;;48.00;21.90;;;;;;;0.98;88.25;100544.98;210182;1295;140735;-69
2022/12/04 16:42:40;;;;;;;36.10;20.40;;;;;;;0.99;88.14;100540.91;210240;1295;139721;-69
2022/12/04 16:47:44;;;;;;;42.60;19.50;;;;;;;0.96;88.32;100541.54;209934;1293;140764;-69
2022/12/04 16:52:47;;;;;;;43.30;17.90;;;;;;;0.95;88.27;100536.84;210115;1294;140480;-69
2022/12/04 16:57:50;;;;;;;31.20;16.50;;;;;;;0.95;88.09;100535.91;210227;1293;142164;-69
2022/12/04 17:02:55;;;;;;;37.10;15.20;;;;;;;0.91;88.26;100524.72;210364;1294;139484;-68
2022/12/04 17:08:00;;;;;;;33.40;18.90;;;;;;;0.93;88.43;100512.55;210222;1294;141667;-68
2022/12/04 17:13:04;;;;;;;34.40;16.10;;;;;;;0.89;87.99;100511.14;210118;1292;141124;-68
2022/12/04 17:18:08;;;;;;;23.50;13.80;;;;;;;0.80;88.18;100504.29;209567;1287;141610;-69
2022/12/04 17:26:06;;;;;;;35.50;18.40;;;;;;;0.76;88.72;100531.84;208233;1340;636897;-69
2022/12/04 17:31:16;;;;;;;27.30;14.10;;;;;;;0.71;88.60;100545.41;208183;1314;140265;-69
2022/12/04 17:36:23;;;;;;;24.30;15.20;;;;;;;0.69;88.68;100555.23;208012;1313;233656;-68
2022/12/04 17:41:27;;;;;;;26.20;15.00;;;;;;;0.69;89.21;100558.55;208690;1306;139243;-68
2022/12/04 17:46:31;;;;;;;23.50;14.00;;;;;;;0.71;89.11;100554.50;208780;1310;139677;-69
2022/12/04 17:51:35;;;;;;;21.90;13.90;;;;;;;0.73;88.69;100554.69;209909;1295;139166;-69
2022/12/04 17:56:38;;;;;;;24.50;15.80;;;;;;;0.75;88.95;100552.02;209747;1298;140399;-68
2022/12/04 18:01:50;;;;;;;34.00;17.10;;;;;;;0.81;88.61;100545.30;209980;1298;139944;-66
2022/12/04 18:06:55;;;;;;;30.00;17.50;;;;;;;0.80;88.99;100542.86;209834;1298;141959;-69
2022/12/04 18:12:00;;;;;;;24.80;14.60;;;;;;;0.80;88.63;100537.00;209709;1296;139899;-69
2022/12/04 18:17:04;;;;;;;24.80;18.20;;;;;;;0.76;88.74;100533.75;207197;1303;140515;-67
2022/12/04 18:22:08;;;;;;;40.30;17.60;;;;;;;0.73;88.85;100523.25;206595;1297;139604;-67
2022/12/04 18:27:12;;;;;;;215.50;53.00;;;;;;;0.74;88.87;100526.94;207170;1299;139215;-66
2022/12/04 18:32:16;;;;;;;39.00;17.10;;;;;;;0.78;89.30;100525.53;209678;1299;139497;-66
2022/12/04 18:37:21;;;;;;;38.30;20.70;;;;;;;0.80;88.82;100525.69;209414;1297;140100;-69
2022/12/04 18:42:29;;;;;;;33.00;17.70;;;;;;;0.79;88.49;100529.80;209112;1290;140644;-70
2022/12/04 18:47:35;;;;;;;31.00;17.20;;;;;;;0.78;88.90;100543.55;206623;1290;139954;-66
2022/12/04 18:52:39;;;;;;;34.10;18.40;;;;;;;0.78;88.65;100532.84;208826;1285;139474;-69
2022/12/04 18:57:43;;;;;;;30.00;17.80;;;;;;;0.74;88.98;100528.38;209712;1298;139448;-69
2022/12/04 19:02:49;;;;;;;32.70;17.20;;;;;;;0.72;88.82;100532.76;209668;1306;139852;-69
2022/12/04 19:07:55;;;;;;;32.30;16.50;;;;;;;0.70;89.39;100525.98;209721;1306;139633;-69
2022/12/04 19:12:59;;;;;;;24.20;14.70;;;;;;;0.72;89.07;100526.77;209543;1298;140022;-68
2022/12/04 19:18:05;;;;;;;35.00;18.80;;;;;;;0.77;88.86;100540.64;209648;1293;139924;-68
2022/12/04 19:23:11;;;;;;;40.00;19.50;;;;;;;0.72;88.98;100544.96;209422;1302;140196;-70
2022/12/04 19:28:16;;;;;;;32.30;16.90;;;;;;;0.72;89.23;100545.00;209619;1301;141281;-70
2022/12/04 19:33:22;;;;;;;30.80;16.80;;;;;;;0.73;89.13;100552.25;210153;1287;141404;-69
2022/12/04 19:38:27;;;;;;;32.00;17.10;;;;;;;0.74;89.34;100556.55;210072;1286;142294;-69
2022/12/04 19:43:31;;;;;;;27.50;15.10;;;;;;;0.72;88.99;100565.69;210054;1295;140358;-69
2022/12/04 19:48:36;;;;;;;34.80;17.60;;;;;;;0.72;89.13;100567.08;210065;1301;141123;-70
2022/12/04 19:53:44;;;;;;;28.90;16.70;;;;;;;0.70;89.12;100567.61;210076;1294;149581;-68
2022/12/04 19:58:55;;;;;;;41.20;22.90;;;;;;;0.71;89.58;100562.44;210059;1296;236381;-68
2022/12/04 20:04:03;;;;;;;32.40;19.00;;;;;;;0.73;89.13;100560.10;210288;1296;139586;-68
2022/12/04 20:09:13;;;;;;;34.30;20.10;;;;;;;0.77;89.21;100568.86;210393;1294;229814;-67
2022/12/04 20:14:18;;;;;;;32.90;18.30;;;;;;;0.74;89.28;100566.53;208146;1295;139309;-66
2022/12/04 20:19:23;;;;;;;34.80;17.60;;;;;;;0.73;89.32;100570.59;210195;1295;139412;-68
2022/12/04 20:24:27;;;;;;;33.90;16.70;;;;;;;0.72;89.32;100573.70;210177;1297;140355;-67
2022/12/04 20:29:30;;;;;;;42.50;21.80;;;;;;;0.72;89.60;100577.84;208444;1297;139812;-68
2022/12/04 20:34:36;;;;;;;40.90;20.20;;;;;;;0.73;89.66;100570.98;210248;1294;139692;-67
2022/12/04 20:39:46;;;;;;;33.60;15.80;;;;;;;0.81;89.11;100564.59;207920;1287;140469;-68
2022/12/04 20:44:50;;;;;;;34.80;17.20;;;;;;;0.81;89.52;100566.47;206894;1284;140719;-68
2022/12/04 20:49:55;;;;;;;32.10;17.30;;;;;;;0.82;89.44;100558.13;209970;1301;140065;-68
2022/12/04 20:55:01;;;;;;;36.90;17.70;;;;;;;0.86;89.53;100549.94;210070;1296;141085;-67
2022/12/04 21:00:10;;;;;;;64.10;22.80;;;;;;;0.87;89.65;100548.02;208578;1281;218869;-68
2022/12/04 21:05:16;;;;;;;48.70;20.30;;;;;;;0.89;89.17;100546.66;210206;1302;140036;-66
2022/12/04 21:10:19;;;;;;;31.40;16.70;;;;;;;0.88;89.37;100541.27;210042;1281;140215;-68
2022/12/04 21:20:46;;;;;;;35.90;15.90;;;;;;;0.89;89.52;100547.87;210242;1296;140835;-68
2022/12/04 21:25:54;;;;;;;31.10;16.70;;;;;;;0.84;88.94;100549.38;210072;1295;139945;-70
2022/12/04 21:31:05;;;;;;;29.10;16.60;;;;;;;0.82;89.12;100539.77;210142;1294;140118;-67
2022/12/04 21:36:09;;;;;;;32.70;19.50;;;;;;;0.88;89.30;100530.73;210264;1294;139569;-66
2022/12/04 21:46:39;;;;;;;33.00;17.60;;;;;;;0.88;89.22;100534.08;210291;1297;139907;-67
2022/12/04 21:51:43;;;;;;;30.90;18.90;;;;;;;0.79;88.90;100532.92;210274;1301;139840;-64
2022/12/04 21:57:02;;;;;;;25.30;17.00;;;;;;;0.69;89.18;100538.14;210248;1287;142834;-66
2022/12/04 22:02:06;;;;;;;26.20;15.80;;;;;;;0.62;89.10;100542.78;210104;1288;139485;-70
2022/12/04 22:07:10;;;;;;;24.50;14.60;;;;;;;0.60;89.23;100540.58;210202;1287;140745;-68
2022/12/04 22:12:16;;;;;;;26.90;14.60;;;;;;;0.60;89.05;100536.35;210133;1288;139433;-66
2022/12/04 22:17:40;;;;;;;29.80;16.90;;;;;;;0.65;89.22;100534.27;210332;1295;140859;-66
2022/12/04 22:22:45;;;;;;;29.90;14.90;;;;;;;0.70;89.22;100533.27;209130;1281;141153;-68
2022/12/04 22:27:49;;;;;;;28.20;15.70;;;;;;;0.68;88.93;100538.76;210302;1294;139733;-68
2022/12/04 22:32:53;;;;;;;26.70;14.90;;;;;;;0.62;89.00;100534.58;210173;1298;143073;-68
2022/12/04 22:37:56;;;;;;;31.90;15.80;;;;;;;0.63;89.27;100527.86;210007;1294;139953;-69
2022/12/04 22:43:00;;;;;;;26.90;14.20;;;;;;;0.63;89.25;100526.79;210250;1284;140708;-65
2022/12/04 22:48:03;;;;;;;30.40;16.80;;;;;;;0.65;89.19;100519.23;210323;1294;139951;-66
2022/12/04 22:53:06;;;;;;;22.70;15.20;;;;;;;0.71;89.48;100516.61;210032;1301;140501;-68
2022/12/04 22:58:10;;;;;;;20.70;12.00;;;;;;;0.69;89.14;100506.79;208742;1294;140749;-66
2022/12/04 23:03:16;;;;;;;29.00;16.60;;;;;;;0.70;89.08;100499.58;209150;1295;140470;-67
2022/12/04 23:08:20;;;;;;;23.90;12.80;;;;;;;0.68;88.74;100497.69;210345;1281;140591;-63
2022/12/04 23:13:23;;;;;;;55.40;20.40;;;;;;;0.60;88.69;100510.17;210279;1284;167662;-67
2022/12/04 23:18:27;;;;;;;113.60;33.00;;;;;;;0.56;88.77;100510.23;210144;1294;142131;-65
2022/12/04 23:23:32;;;;;;;34.40;14.50;;;;;;;0.54;89.30;100503.57;210164;1295;141436;-66
2022/12/04 23:28:36;;;;;;;24.50;15.70;;;;;;;0.58;89.14;100501.48;210083;1289;140743;-68
2022/12/04 23:33:40;;;;;;;19.60;12.60;;;;;;;0.55;88.98;100498.10;210384;1294;140046;-70
2022/12/04 23:38:44;;;;;;;28.60;15.10;;;;;;;0.58;89.22;100500.06;210372;1287;139145;-69